sensor_id;sensor_type;location;lat;lon;timestamp;temperature;humidity
34492;DHT22;20737;49.908;8.126;2023-06-10T00:00:00;18.70;99.90
34492;DHT22;20737;49.908;8.126;2023-06-10T00:02:28;18.60;99.90
34492;DHT22;20737;49.908;8.126;2023-06-10T00:04:55;18.50;99.90
34492;DHT22;20737;49.908;8.126;2023-06-10T00:07:22;18.50;99.90
34492;DHT22;20737;49.908;8.126;2023-06-10T00:09:49;18.40;99.90
34492;DHT22;20737;49.908;8.126;2023-06-10T00:12:16;18.30;99.90
34492;DHT22;20737;49.908;8.126;2023-06-10T00:14:43;18.20;99.90
34492;DHT22;20737;49.908;8.126;2023-06-10T00:17:10;18.10;99.90
34492;DHT22;20737;49.908;8.126;2023-06-10T00:19:38;18.00;99.90
34492;DHT22;20737;49.908;8.126;2023-06-10T00:22:08;18.10;99.90
34492;DHT22;20737;49.908;8.126;2023-06-10T00:24:36;18.00;99.90
34492;DHT22;20737;49.908;8.126;2023-06-10T00:27:03;17.90;99.90
34492;DHT22;20737;49.908;8.126;2023-06-10T00:29:30;18.00;99.90
34492;DHT22;20737;49.908;8.126;2023-06-10T00:31:57;18.00;99.90
34492;DHT22;20737;49.908;8.126;2023-06-10T00:34:24;17.90;99.90
34492;DHT22;20737;49.908;8.126;2023-06-10T00:36:52;17.90;99.90
34492;DHT22;20737;49.908;8.126;2023-06-10T00:39:19;17.90;99.90
34492;DHT22;20737;49.908;8.126;2023-06-10T00:41:46;17.80;99.90
34492;DHT22;20737;49.908;8.126;2023-06-10T00:44:13;17.70;99.90
34492;DHT22;20737;49.908;8.126;2023-06-10T00:46:40;17.70;99.90
34492;DHT22;20737;49.908;8.126;2023-06-10T00:49:07;17.70;99.90
34492;DHT22;20737;49.908;8.126;2023-06-10T00:51:34;17.70;99.90
34492;DHT22;20737;49.908;8.126;2023-06-10T00:54:03;17.60;99.90
34492;DHT22;20737;49.908;8.126;2023-06-10T00:56:31;17.60;99.90
34492;DHT22;20737;49.908;8.126;2023-06-10T00:59:00;17.50;99.90
34492;DHT22;20737;49.908;8.126;2023-06-10T01:01:27;17.60;99.90
34492;DHT22;20737;49.908;8.126;2023-06-10T01:03:54;17.40;99.90
34492;DHT22;20737;49.908;8.126;2023-06-10T01:06:30;17.40;99.90
34492;DHT22;20737;49.908;8.126;2023-06-10T01:09:10;17.40;99.90
34492;DHT22;20737;49.908;8.126;2023-06-10T01:11:43;17.20;99.90
34492;DHT22;20737;49.908;8.126;2023-06-10T01:14:11;17.20;99.90
34492;DHT22;20737;49.908;8.126;2023-06-10T01:16:38;17.10;99.90
34492;DHT22;20737;49.908;8.126;2023-06-10T01:19:06;17.10;99.90
34492;DHT22;20737;49.908;8.126;2023-06-10T01:21:34;17.00;99.90
34492;DHT22;20737;49.908;8.126;2023-06-10T01:24:01;16.90;99.90
34492;DHT22;20737;49.908;8.126;2023-06-10T01:26:30;16.80;99.90
34492;DHT22;20737;49.908;8.126;2023-06-10T01:29:02;16.80;99.90
34492;DHT22;20737;49.908;8.126;2023-06-10T01:31:36;16.80;99.90
34492;DHT22;20737;49.908;8.126;2023-06-10T01:34:09;16.80;99.90
34492;DHT22;20737;49.908;8.126;2023-06-10T01:36:38;16.70;99.90
34492;DHT22;20737;49.908;8.126;2023-06-10T01:39:08;16.80;99.90
34492;DHT22;20737;49.908;8.126;2023-06-10T01:41:36;16.70;99.90
34492;DHT22;20737;49.908;8.126;2023-06-10T01:44:04;16.60;99.90
34492;DHT22;20737;49.908;8.126;2023-06-10T01:46:30;16.60;99.90
34492;DHT22;20737;49.908;8.126;2023-06-10T01:48:57;16.50;99.90
34492;DHT22;20737;49.908;8.126;2023-06-10T01:51:24;16.50;99.90
34492;DHT22;20737;49.908;8.126;2023-06-10T01:53:52;16.50;99.90
34492;DHT22;20737;49.908;8.126;2023-06-10T01:56:19;16.40;99.90
34492;DHT22;20737;49.908;8.126;2023-06-10T01:58:46;16.30;99.90
34492;DHT22;20737;49.908;8.126;2023-06-10T02:01:13;16.20;99.90
34492;DHT22;20737;49.908;8.126;2023-06-10T02:03:40;16.20;99.90
34492;DHT22;20737;49.908;8.126;2023-06-10T02:06:07;16.20;99.90
34492;DHT22;20737;49.908;8.126;2023-06-10T02:08:33;16.20;99.90
34492;DHT22;20737;49.908;8.126;2023-06-10T02:11:02;16.20;99.90
34492;DHT22;20737;49.908;8.126;2023-06-10T02:13:28;16.10;99.90
34492;DHT22;20737;49.908;8.126;2023-06-10T02:15:55;16.10;99.90
34492;DHT22;20737;49.908;8.126;2023-06-10T02:18:22;16.20;99.90
34492;DHT22;20737;49.908;8.126;2023-06-10T02:20:49;16.10;99.90
34492;DHT22;20737;49.908;8.126;2023-06-10T02:23:16;16.00;99.90
34492;DHT22;20737;49.908;8.126;2023-06-10T02:25:42;16.00;99.90
34492;DHT22;20737;49.908;8.126;2023-06-10T02:28:10;15.80;99.90
34492;DHT22;20737;49.908;8.126;2023-06-10T02:30:39;15.70;99.90
34492;DHT22;20737;49.908;8.126;2023-06-10T02:33:06;15.70;99.90
34492;DHT22;20737;49.908;8.126;2023-06-10T02:35:35;15.70;99.90
34492;DHT22;20737;49.908;8.126;2023-06-10T02:38:02;15.60;99.90
34492;DHT22;20737;49.908;8.126;2023-06-10T02:40:29;15.60;99.90
34492;DHT22;20737;49.908;8.126;2023-06-10T02:42:56;15.50;99.90
34492;DHT22;20737;49.908;8.126;2023-06-10T02:45:24;15.50;99.90
34492;DHT22;20737;49.908;8.126;2023-06-10T02:47:51;15.50;99.90
34492;DHT22;20737;49.908;8.126;2023-06-10T02:50:18;15.50;99.90
34492;DHT22;20737;49.908;8.126;2023-06-10T02:52:45;15.50;99.90
34492;DHT22;20737;49.908;8.126;2023-06-10T02:55:12;15.40;99.90
34492;DHT22;20737;49.908;8.126;2023-06-10T02:57:38;15.40;99.90
34492;DHT22;20737;49.908;8.126;2023-06-10T03:00:07;15.40;99.90
34492;DHT22;20737;49.908;8.126;2023-06-10T03:02:37;15.40;99.90
34492;DHT22;20737;49.908;8.126;2023-06-10T03:05:05;15.40;99.90
34492;DHT22;20737;49.908;8.126;2023-06-10T03:07:35;15.40;99.90
34492;DHT22;20737;49.908;8.126;2023-06-10T03:10:02;15.40;99.90
34492;DHT22;20737;49.908;8.126;2023-06-10T03:12:29;15.30;99.90
34492;DHT22;20737;49.908;8.126;2023-06-10T03:14:56;15.30;99.90
34492;DHT22;20737;49.908;8.126;2023-06-10T03:17:23;15.30;99.90
34492;DHT22;20737;49.908;8.126;2023-06-10T03:19:53;15.30;99.90
34492;DHT22;20737;49.908;8.126;2023-06-10T03:22:28;15.20;99.90
34492;DHT22;20737;49.908;8.126;2023-06-10T03:24:55;15.20;99.90
34492;DHT22;20737;49.908;8.126;2023-06-10T03:27:22;15.20;99.90
34492;DHT22;20737;49.908;8.126;2023-06-10T03:29:49;15.20;99.90
34492;DHT22;20737;49.908;8.126;2023-06-10T03:32:16;15.10;99.90
34492;DHT22;20737;49.908;8.126;2023-06-10T03:34:43;15.10;99.90
34492;DHT22;20737;49.908;8.126;2023-06-10T03:37:12;15.00;99.90
34492;DHT22;20737;49.908;8.126;2023-06-10T03:39:39;15.00;99.90
34492;DHT22;20737;49.908;8.126;2023-06-10T03:42:08;15.10;99.90
34492;DHT22;20737;49.908;8.126;2023-06-10T03:44:34;15.10;99.90
34492;DHT22;20737;49.908;8.126;2023-06-10T03:47:02;15.10;99.90
34492;DHT22;20737;49.908;8.126;2023-06-10T03:49:28;15.10;99.90
34492;DHT22;20737;49.908;8.126;2023-06-10T03:51:55;15.10;99.90
34492;DHT22;20737;49.908;8.126;2023-06-10T03:54:23;15.20;99.90
34492;DHT22;20737;49.908;8.126;2023-06-10T03:56:50;15.20;99.90
34492;DHT22;20737;49.908;8.126;2023-06-10T03:59:17;15.10;99.90
34492;DHT22;20737;49.908;8.126;2023-06-10T04:01:44;15.20;99.90
34492;DHT22;20737;49.908;8.126;2023-06-10T04:04:13;15.20;99.90
34492;DHT22;20737;49.908;8.126;2023-06-10T04:06:43;15.20;99.90
34492;DHT22;20737;49.908;8.126;2023-06-10T04:09:11;15.30;99.90
34492;DHT22;20737;49.908;8.126;2023-06-10T04:11:39;15.40;99.90
34492;DHT22;20737;49.908;8.126;2023-06-10T04:14:06;15.40;99.90
34492;DHT22;20737;49.908;8.126;2023-06-10T04:16:33;15.50;99.90
34492;DHT22;20737;49.908;8.126;2023-06-10T04:19:00;15.60;99.90
34492;DHT22;20737;49.908;8.126;2023-06-10T04:21:27;15.60;99.90
34492;DHT22;20737;49.908;8.126;2023-06-10T04:23:54;15.60;99.90
34492;DHT22;20737;49.908;8.126;2023-06-10T04:26:21;15.70;99.90
34492;DHT22;20737;49.908;8.126;2023-06-10T04:28:49;15.70;99.90
34492;DHT22;20737;49.908;8.126;2023-06-10T04:31:16;15.80;99.90
34492;DHT22;20737;49.908;8.126;2023-06-10T04:33:43;15.90;99.90
34492;DHT22;20737;49.908;8.126;2023-06-10T04:36:09;16.00;99.90
34492;DHT22;20737;49.908;8.126;2023-06-10T04:38:36;16.00;99.90
34492;DHT22;20737;49.908;8.126;2023-06-10T04:41:03;16.10;99.90
34492;DHT22;20737;49.908;8.126;2023-06-10T04:43:30;16.20;99.90
34492;DHT22;20737;49.908;8.126;2023-06-10T04:45:58;16.20;99.90
34492;DHT22;20737;49.908;8.126;2023-06-10T04:48:25;16.30;99.90
34492;DHT22;20737;49.908;8.126;2023-06-10T04:50:52;16.30;99.90
34492;DHT22;20737;49.908;8.126;2023-06-10T04:53:19;16.50;99.90
34492;DHT22;20737;49.908;8.126;2023-06-10T04:55:45;16.60;99.90
34492;DHT22;20737;49.908;8.126;2023-06-10T04:58:13;16.70;99.90
34492;DHT22;20737;49.908;8.126;2023-06-10T05:00:40;16.80;99.90
34492;DHT22;20737;49.908;8.126;2023-06-10T05:03:08;17.00;99.90
34492;DHT22;20737;49.908;8.126;2023-06-10T05:05:35;17.10;99.90
34492;DHT22;20737;49.908;8.126;2023-06-10T05:08:02;17.30;99.90
34492;DHT22;20737;49.908;8.126;2023-06-10T05:10:28;17.50;99.90
34492;DHT22;20737;49.908;8.126;2023-06-10T05:12:57;17.60;99.90
34492;DHT22;20737;49.908;8.126;2023-06-10T05:15:23;17.80;99.90
34492;DHT22;20737;49.908;8.126;2023-06-10T05:17:50;18.00;99.90
34492;DHT22;20737;49.908;8.126;2023-06-10T05:20:18;18.10;99.90
34492;DHT22;20737;49.908;8.126;2023-06-10T05:22:45;18.20;99.90
34492;DHT22;20737;49.908;8.126;2023-06-10T05:25:12;18.40;99.90
34492;DHT22;20737;49.908;8.126;2023-06-10T05:27:39;18.50;99.90
34492;DHT22;20737;49.908;8.126;2023-06-10T05:30:08;18.70;99.90
34492;DHT22;20737;49.908;8.126;2023-06-10T05:32:35;18.90;99.90
34492;DHT22;20737;49.908;8.126;2023-06-10T05:35:02;19.20;99.90
34492;DHT22;20737;49.908;8.126;2023-06-10T05:37:32;19.40;99.90
34492;DHT22;20737;49.908;8.126;2023-06-10T05:39:59;19.60;99.90
34492;DHT22;20737;49.908;8.126;2023-06-10T05:42:26;19.80;99.90
34492;DHT22;20737;49.908;8.126;2023-06-10T05:44:53;20.00;99.90
34492;DHT22;20737;49.908;8.126;2023-06-10T05:47:19;20.20;99.90
34492;DHT22;20737;49.908;8.126;2023-06-10T05:49:46;20.30;99.90
34492;DHT22;20737;49.908;8.126;2023-06-10T05:52:15;20.60;99.90
34492;DHT22;20737;49.908;8.126;2023-06-10T05:54:43;20.70;99.90
34492;DHT22;20737;49.908;8.126;2023-06-10T05:57:10;21.00;99.90
34492;DHT22;20737;49.908;8.126;2023-06-10T05:59:37;21.20;99.90
34492;DHT22;20737;49.908;8.126;2023-06-10T06:02:04;21.40;99.90
34492;DHT22;20737;49.908;8.126;2023-06-10T06:04:31;21.50;99.90
34492;DHT22;20737;49.908;8.126;2023-06-10T06:06:58;21.50;99.90
34492;DHT22;20737;49.908;8.126;2023-06-10T06:09:25;21.60;99.90
34492;DHT22;20737;49.908;8.126;2023-06-10T06:11:53;21.70;99.90
34492;DHT22;20737;49.908;8.126;2023-06-10T06:14:20;21.80;99.90
34492;DHT22;20737;49.908;8.126;2023-06-10T06:16:46;22.00;99.90
34492;DHT22;20737;49.908;8.126;2023-06-10T06:19:13;22.20;99.90
34492;DHT22;20737;49.908;8.126;2023-06-10T06:21:41;22.30;99.90
34492;DHT22;20737;49.908;8.126;2023-06-10T06:24:07;22.60;99.90
34492;DHT22;20737;49.908;8.126;2023-06-10T06:26:34;22.80;99.90
34492;DHT22;20737;49.908;8.126;2023-06-10T06:29:02;22.90;99.90
34492;DHT22;20737;49.908;8.126;2023-06-10T06:31:30;23.20;99.90
34492;DHT22;20737;49.908;8.126;2023-06-10T06:33:56;23.60;99.90
34492;DHT22;20737;49.908;8.126;2023-06-10T06:36:23;24.30;99.90
34492;DHT22;20737;49.908;8.126;2023-06-10T06:38:50;25.10;99.90
34492;DHT22;20737;49.908;8.126;2023-06-10T06:41:17;26.00;96.50
34492;DHT22;20737;49.908;8.126;2023-06-10T06:43:45;26.70;93.40
34492;DHT22;20737;49.908;8.126;2023-06-10T06:46:13;27.20;90.60
34492;DHT22;20737;49.908;8.126;2023-06-10T06:48:41;27.70;88.20
34492;DHT22;20737;49.908;8.126;2023-06-10T06:51:07;28.10;82.00
34492;DHT22;20737;49.908;8.126;2023-06-10T06:53:34;28.30;79.00
34492;DHT22;20737;49.908;8.126;2023-06-10T06:56:02;28.80;76.60
34492;DHT22;20737;49.908;8.126;2023-06-10T06:58:29;29.30;74.60
34492;DHT22;20737;49.908;8.126;2023-06-10T07:04:19;29.40;71.50
34492;DHT22;20737;49.908;8.126;2023-06-10T07:06:47;29.60;70.80
34492;DHT22;20737;49.908;8.126;2023-06-10T07:09:13;29.60;69.60
34492;DHT22;20737;49.908;8.126;2023-06-10T07:11:40;30.10;68.30
34492;DHT22;20737;49.908;8.126;2023-06-10T07:14:07;30.30;66.00
34492;DHT22;20737;49.908;8.126;2023-06-10T07:16:34;30.90;66.70
34492;DHT22;20737;49.908;8.126;2023-06-10T07:19:00;31.40;63.10
34492;DHT22;20737;49.908;8.126;2023-06-10T07:21:29;31.70;60.70
34492;DHT22;20737;49.908;8.126;2023-06-10T07:23:58;32.40;59.20
34492;DHT22;20737;49.908;8.126;2023-06-10T07:26:24;32.30;58.30
34492;DHT22;20737;49.908;8.126;2023-06-10T07:28:52;32.30;57.70
34492;DHT22;20737;49.908;8.126;2023-06-10T07:31:18;32.50;57.60
34492;DHT22;20737;49.908;8.126;2023-06-10T07:33:46;33.00;57.60
34492;DHT22;20737;49.908;8.126;2023-06-10T07:36:13;32.70;56.30
34492;DHT22;20737;49.908;8.126;2023-06-10T07:38:41;32.90;56.80
34492;DHT22;20737;49.908;8.126;2023-06-10T07:41:08;33.40;54.30
34492;DHT22;20737;49.908;8.126;2023-06-10T07:43:35;33.30;54.30
34492;DHT22;20737;49.908;8.126;2023-06-10T07:46:02;32.80;53.90
34492;DHT22;20737;49.908;8.126;2023-06-10T07:48:28;33.20;53.70
34492;DHT22;20737;49.908;8.126;2023-06-10T07:50:55;33.60;53.90
34492;DHT22;20737;49.908;8.126;2023-06-10T07:53:22;34.00;52.90
34492;DHT22;20737;49.908;8.126;2023-06-10T07:55:50;34.20;51.40
34492;DHT22;20737;49.908;8.126;2023-06-10T07:58:17;34.30;52.10
34492;DHT22;20737;49.908;8.126;2023-06-10T08:00:43;34.80;51.00
34492;DHT22;20737;49.908;8.126;2023-06-10T08:03:10;34.80;50.30
34492;DHT22;20737;49.908;8.126;2023-06-10T08:05:37;34.70;51.70
34492;DHT22;20737;49.908;8.126;2023-06-10T08:08:04;34.30;51.10
34492;DHT22;20737;49.908;8.126;2023-06-10T08:10:30;33.50;51.90
34492;DHT22;20737;49.908;8.126;2023-06-10T08:12:58;32.90;52.90
34492;DHT22;20737;49.908;8.126;2023-06-10T08:15:25;32.00;54.60
34492;DHT22;20737;49.908;8.126;2023-06-10T08:17:52;31.20;57.30
34492;DHT22;20737;49.908;8.126;2023-06-10T08:20:19;30.90;56.80
34492;DHT22;20737;49.908;8.126;2023-06-10T08:22:45;30.60;57.70
34492;DHT22;20737;49.908;8.126;2023-06-10T08:25:12;30.60;59.80
34492;DHT22;20737;49.908;8.126;2023-06-10T08:27:39;30.30;58.10
34492;DHT22;20737;49.908;8.126;2023-06-10T08:30:08;30.20;59.70
34492;DHT22;20737;49.908;8.126;2023-06-10T08:32:36;30.00;59.20
34492;DHT22;20737;49.908;8.126;2023-06-10T08:35:03;30.00;59.20
34492;DHT22;20737;49.908;8.126;2023-06-10T08:37:30;29.90;57.80
34492;DHT22;20737;49.908;8.126;2023-06-10T08:39:57;30.00;60.70
34492;DHT22;20737;49.908;8.126;2023-06-10T08:42:28;29.80;59.10
34492;DHT22;20737;49.908;8.126;2023-06-10T08:44:55;29.90;61.10
34492;DHT22;20737;49.908;8.126;2023-06-10T08:47:24;30.40;61.00
34492;DHT22;20737;49.908;8.126;2023-06-10T08:49:53;30.40;58.30
34492;DHT22;20737;49.908;8.126;2023-06-10T08:52:22;30.60;59.50
34492;DHT22;20737;49.908;8.126;2023-06-10T08:54:52;30.70;59.80
34492;DHT22;20737;49.908;8.126;2023-06-10T08:57:21;30.80;58.90
34492;DHT22;20737;49.908;8.126;2023-06-10T08:59:49;30.70;58.30
34492;DHT22;20737;49.908;8.126;2023-06-10T09:02:16;30.80;60.00
34492;DHT22;20737;49.908;8.126;2023-06-10T09:04:47;30.80;58.40
34492;DHT22;20737;49.908;8.126;2023-06-10T09:07:15;31.10;59.30
34492;DHT22;20737;49.908;8.126;2023-06-10T09:09:42;31.60;58.30
34492;DHT22;20737;49.908;8.126;2023-06-10T09:12:10;31.70;57.00
34492;DHT22;20737;49.908;8.126;2023-06-10T09:14:37;32.30;57.30
34492;DHT22;20737;49.908;8.126;2023-06-10T09:17:05;32.30;55.10
34492;DHT22;20737;49.908;8.126;2023-06-10T09:19:32;32.80;55.10
34492;DHT22;20737;49.908;8.126;2023-06-10T09:22:00;33.30;52.60
34492;DHT22;20737;49.908;8.126;2023-06-10T09:24:27;33.70;51.50
34492;DHT22;20737;49.908;8.126;2023-06-10T09:27:02;33.70;51.70
34492;DHT22;20737;49.908;8.126;2023-06-10T09:29:29;34.40;51.30
34492;DHT22;20737;49.908;8.126;2023-06-10T09:31:55;34.20;49.60
34492;DHT22;20737;49.908;8.126;2023-06-10T09:34:25;34.20;50.00
34492;DHT22;20737;49.908;8.126;2023-06-10T09:36:53;34.70;49.00
34492;DHT22;20737;49.908;8.126;2023-06-10T09:39:22;34.50;49.20
34492;DHT22;20737;49.908;8.126;2023-06-10T09:41:49;34.60;49.60
34492;DHT22;20737;49.908;8.126;2023-06-10T09:44:17;35.00;48.60
34492;DHT22;20737;49.908;8.126;2023-06-10T09:46:48;35.40;48.40
34492;DHT22;20737;49.908;8.126;2023-06-10T09:49:16;35.80;47.40
34492;DHT22;20737;49.908;8.126;2023-06-10T09:51:50;36.00;46.50
34492;DHT22;20737;49.908;8.126;2023-06-10T09:54:17;36.00;45.90
34492;DHT22;20737;49.908;8.126;2023-06-10T09:56:48;36.00;46.70
34492;DHT22;20737;49.908;8.126;2023-06-10T09:59:16;36.70;45.60
34492;DHT22;20737;49.908;8.126;2023-06-10T10:01:43;36.80;45.30
34492;DHT22;20737;49.908;8.126;2023-06-10T10:04:09;36.90;46.00
34492;DHT22;20737;49.908;8.126;2023-06-10T10:06:36;37.10;44.10
34492;DHT22;20737;49.908;8.126;2023-06-10T10:09:04;37.20;43.10
34492;DHT22;20737;49.908;8.126;2023-06-10T10:11:32;36.60;46.10
34492;DHT22;20737;49.908;8.126;2023-06-10T10:14:03;37.10;44.00
34492;DHT22;20737;49.908;8.126;2023-06-10T10:16:35;36.80;45.60
34492;DHT22;20737;49.908;8.126;2023-06-10T10:19:04;37.20;44.90
34492;DHT22;20737;49.908;8.126;2023-06-10T10:21:40;37.80;42.90
34492;DHT22;20737;49.908;8.126;2023-06-10T10:24:15;37.50;42.80
34492;DHT22;20737;49.908;8.126;2023-06-10T10:26:42;37.70;43.50
34492;DHT22;20737;49.908;8.126;2023-06-10T10:29:20;37.80;42.20
34492;DHT22;20737;49.908;8.126;2023-06-10T10:31:51;38.00;42.80
34492;DHT22;20737;49.908;8.126;2023-06-10T10:34:22;38.30;43.00
34492;DHT22;20737;49.908;8.126;2023-06-10T10:36:51;38.20;41.90
34492;DHT22;20737;49.908;8.126;2023-06-10T10:39:18;38.50;42.50
34492;DHT22;20737;49.908;8.126;2023-06-10T10:41:46;38.20;41.70
34492;DHT22;20737;49.908;8.126;2023-06-10T10:44:16;38.60;40.60
34492;DHT22;20737;49.908;8.126;2023-06-10T10:46:43;38.40;40.00
34492;DHT22;20737;49.908;8.126;2023-06-10T10:49:12;37.30;40.70
34492;DHT22;20737;49.908;8.126;2023-06-10T10:51:54;37.20;41.50
34492;DHT22;20737;49.908;8.126;2023-06-10T10:54:28;37.80;42.50
34492;DHT22;20737;49.908;8.126;2023-06-10T10:57:13;37.90;40.90
34492;DHT22;20737;49.908;8.126;2023-06-10T10:59:52;37.40;41.50
34492;DHT22;20737;49.908;8.126;2023-06-10T11:02:33;37.70;41.10
34492;DHT22;20737;49.908;8.126;2023-06-10T11:05:01;37.70;41.10
34492;DHT22;20737;49.908;8.126;2023-06-10T11:07:32;37.50;40.90
34492;DHT22;20737;49.908;8.126;2023-06-10T11:09:59;38.10;41.50
34492;DHT22;20737;49.908;8.126;2023-06-10T11:12:49;38.10;40.60
34492;DHT22;20737;49.908;8.126;2023-06-10T11:15:20;37.10;41.60
34492;DHT22;20737;49.908;8.126;2023-06-10T11:18:06;37.20;40.40
34492;DHT22;20737;49.908;8.126;2023-06-10T11:20:54;37.20;41.70
34492;DHT22;20737;49.908;8.126;2023-06-10T11:23:35;36.70;40.90
34492;DHT22;20737;49.908;8.126;2023-06-10T11:26:15;36.70;41.40
34492;DHT22;20737;49.908;8.126;2023-06-10T11:29:09;36.20;42.30
34492;DHT22;20737;49.908;8.126;2023-06-10T11:31:40;36.20;42.70
34492;DHT22;20737;49.908;8.126;2023-06-10T11:34:07;36.20;42.30
34492;DHT22;20737;49.908;8.126;2023-06-10T11:36:39;36.20;42.40
34492;DHT22;20737;49.908;8.126;2023-06-10T11:39:10;35.60;43.90
34492;DHT22;20737;49.908;8.126;2023-06-10T11:41:38;35.20;44.50
34492;DHT22;20737;49.908;8.126;2023-06-10T11:44:08;34.60;45.30
34492;DHT22;20737;49.908;8.126;2023-06-10T11:46:36;34.00;46.10
34492;DHT22;20737;49.908;8.126;2023-06-10T11:49:04;33.00;47.00
34492;DHT22;20737;49.908;8.126;2023-06-10T11:51:34;32.70;48.50
34492;DHT22;20737;49.908;8.126;2023-06-10T11:54:01;32.30;49.30
34492;DHT22;20737;49.908;8.126;2023-06-10T11:56:29;31.80;49.60
34492;DHT22;20737;49.908;8.126;2023-06-10T11:58:58;32.10;50.70
34492;DHT22;20737;49.908;8.126;2023-06-10T12:01:29;32.60;48.40
34492;DHT22;20737;49.908;8.126;2023-06-10T12:03:57;32.60;48.80
34492;DHT22;20737;49.908;8.126;2023-06-10T12:06:26;32.90;49.40
34492;DHT22;20737;49.908;8.126;2023-06-10T12:08:54;33.00;48.30
34492;DHT22;20737;49.908;8.126;2023-06-10T12:11:21;32.80;49.30
34492;DHT22;20737;49.908;8.126;2023-06-10T12:13:49;33.00;49.20
34492;DHT22;20737;49.908;8.126;2023-06-10T12:16:17;33.10;49.80
34492;DHT22;20737;49.908;8.126;2023-06-10T12:18:44;33.30;48.70
34492;DHT22;20737;49.908;8.126;2023-06-10T12:21:16;33.50;49.30
34492;DHT22;20737;49.908;8.126;2023-06-10T12:24:02;33.50;47.30
34492;DHT22;20737;49.908;8.126;2023-06-10T12:26:40;33.40;47.40
34492;DHT22;20737;49.908;8.126;2023-06-10T12:29:28;33.10;48.40
34492;DHT22;20737;49.908;8.126;2023-06-10T12:31:59;32.80;48.40
34492;DHT22;20737;49.908;8.126;2023-06-10T12:34:34;32.90;49.30
34492;DHT22;20737;49.908;8.126;2023-06-10T12:37:02;33.10;48.40
34492;DHT22;20737;49.908;8.126;2023-06-10T12:39:31;33.50;49.70
34492;DHT22;20737;49.908;8.126;2023-06-10T12:41:59;33.50;47.90
34492;DHT22;20737;49.908;8.126;2023-06-10T12:44:38;33.70;46.40
34492;DHT22;20737;49.908;8.126;2023-06-10T12:47:08;33.70;46.10
34492;DHT22;20737;49.908;8.126;2023-06-10T12:49:37;33.80;47.70
34492;DHT22;20737;49.908;8.126;2023-06-10T12:52:05;33.90;46.40
34492;DHT22;20737;49.908;8.126;2023-06-10T12:54:34;34.00;47.10
34492;DHT22;20737;49.908;8.126;2023-06-10T12:57:01;34.10;47.60
34492;DHT22;20737;49.908;8.126;2023-06-10T12:59:28;34.40;46.50
34492;DHT22;20737;49.908;8.126;2023-06-10T13:01:55;34.50;43.40
34492;DHT22;20737;49.908;8.126;2023-06-10T13:04:21;34.10;45.10
34492;DHT22;20737;49.908;8.126;2023-06-10T13:06:48;34.20;44.90
34492;DHT22;20737;49.908;8.126;2023-06-10T13:09:16;34.20;43.80
34492;DHT22;20737;49.908;8.126;2023-06-10T13:11:44;33.70;44.90
34492;DHT22;20737;49.908;8.126;2023-06-10T13:14:11;33.00;45.40
34492;DHT22;20737;49.908;8.126;2023-06-10T13:16:38;32.30;46.30
34492;DHT22;20737;49.908;8.126;2023-06-10T13:19:05;32.30;47.60
34492;DHT22;20737;49.908;8.126;2023-06-10T13:21:33;32.80;47.40
34492;DHT22;20737;49.908;8.126;2023-06-10T13:23:59;33.20;47.50
34492;DHT22;20737;49.908;8.126;2023-06-10T13:26:26;33.60;47.50
34492;DHT22;20737;49.908;8.126;2023-06-10T13:28:54;33.80;45.90
34492;DHT22;20737;49.908;8.126;2023-06-10T13:31:21;33.90;44.70
34492;DHT22;20737;49.908;8.126;2023-06-10T13:33:48;34.00;45.00
34492;DHT22;20737;49.908;8.126;2023-06-10T13:36:15;34.00;44.50
34492;DHT22;20737;49.908;8.126;2023-06-10T13:38:41;33.80;45.10
34492;DHT22;20737;49.908;8.126;2023-06-10T13:41:08;33.60;44.50
34492;DHT22;20737;49.908;8.126;2023-06-10T13:43:35;33.20;45.40
34492;DHT22;20737;49.908;8.126;2023-06-10T13:46:03;32.70;43.80
34492;DHT22;20737;49.908;8.126;2023-06-10T13:48:30;32.30;46.10
34492;DHT22;20737;49.908;8.126;2023-06-10T13:50:57;32.30;45.40
34492;DHT22;20737;49.908;8.126;2023-06-10T13:53:25;32.30;46.80
34492;DHT22;20737;49.908;8.126;2023-06-10T13:55:51;32.10;47.40
34492;DHT22;20737;49.908;8.126;2023-06-10T13:58:18;31.70;46.70
34492;DHT22;20737;49.908;8.126;2023-06-10T14:00:45;31.30;47.90
34492;DHT22;20737;49.908;8.126;2023-06-10T14:03:14;31.20;48.10
34492;DHT22;20737;49.908;8.126;2023-06-10T14:05:40;31.20;48.30
34492;DHT22;20737;49.908;8.126;2023-06-10T14:08:07;31.50;48.80
34492;DHT22;20737;49.908;8.126;2023-06-10T14:10:34;31.80;48.20
34492;DHT22;20737;49.908;8.126;2023-06-10T14:13:01;32.40;46.90
34492;DHT22;20737;49.908;8.126;2023-06-10T14:15:28;32.70;47.60
34492;DHT22;20737;49.908;8.126;2023-06-10T14:17:55;32.90;47.80
34492;DHT22;20737;49.908;8.126;2023-06-10T14:20:23;33.00;47.20
34492;DHT22;20737;49.908;8.126;2023-06-10T14:22:51;32.80;45.30
34492;DHT22;20737;49.908;8.126;2023-06-10T14:25:17;32.90;47.60
34492;DHT22;20737;49.908;8.126;2023-06-10T14:27:44;32.90;46.60
34492;DHT22;20737;49.908;8.126;2023-06-10T14:30:13;32.90;46.30
34492;DHT22;20737;49.908;8.126;2023-06-10T14:32:39;33.10;46.00
34492;DHT22;20737;49.908;8.126;2023-06-10T14:35:06;33.20;45.00
34492;DHT22;20737;49.908;8.126;2023-06-10T14:37:34;33.10;44.80
34492;DHT22;20737;49.908;8.126;2023-06-10T14:40:06;33.10;46.30
34492;DHT22;20737;49.908;8.126;2023-06-10T14:42:33;33.10;45.70
34492;DHT22;20737;49.908;8.126;2023-06-10T14:45:00;33.20;46.40
34492;DHT22;20737;49.908;8.126;2023-06-10T14:47:27;33.20;45.20
34492;DHT22;20737;49.908;8.126;2023-06-10T14:49:53;33.10;45.60
34492;DHT22;20737;49.908;8.126;2023-06-10T14:52:20;33.20;43.80
34492;DHT22;20737;49.908;8.126;2023-06-10T14:54:48;33.20;43.30
34492;DHT22;20737;49.908;8.126;2023-06-10T14:57:15;33.40;44.70
34492;DHT22;20737;49.908;8.126;2023-06-10T14:59:41;33.60;44.00
34492;DHT22;20737;49.908;8.126;2023-06-10T15:02:08;33.80;45.40
34492;DHT22;20737;49.908;8.126;2023-06-10T15:04:35;33.50;44.30
34492;DHT22;20737;49.908;8.126;2023-06-10T15:07:02;32.80;45.90
34492;DHT22;20737;49.908;8.126;2023-06-10T15:09:28;32.30;46.80
34492;DHT22;20737;49.908;8.126;2023-06-10T15:11:56;32.00;47.80
34492;DHT22;20737;49.908;8.126;2023-06-10T15:14:23;31.60;48.50
34492;DHT22;20737;49.908;8.126;2023-06-10T15:16:51;31.20;49.30
34492;DHT22;20737;49.908;8.126;2023-06-10T15:19:18;30.80;49.80
34492;DHT22;20737;49.908;8.126;2023-06-10T15:21:44;30.50;50.80
34492;DHT22;20737;49.908;8.126;2023-06-10T15:24:11;30.30;50.30
34492;DHT22;20737;49.908;8.126;2023-06-10T15:26:38;30.10;50.70
34492;DHT22;20737;49.908;8.126;2023-06-10T15:29:06;29.90;51.00
34492;DHT22;20737;49.908;8.126;2023-06-10T15:31:32;30.10;50.80
34492;DHT22;20737;49.908;8.126;2023-06-10T15:33:59;30.50;49.70
34492;DHT22;20737;49.908;8.126;2023-06-10T15:36:26;30.80;49.10
34492;DHT22;20737;49.908;8.126;2023-06-10T15:38:53;31.20;49.60